Flight Track Log - Related Links

Times and Time Zones

All times are in EDT time to prevent confusion due to time zone crossing. See the AMX402 flight status page for this flight to view local times or setup timezone preferences in your user account.

Time Position Orientation Groundspeed Altitude Reporting Facility
EDT Latitude Longitude Course Direction KTS MPH feet Rate Location/Type
Sat 12:03:07 PM 24.2950 -96.4730 32° Northeast 485 558 35,000  Level FlightAware ADS-B
Sat 12:03:47 PM 24.3720 -96.4190 33° Northeast 484 557 35,000  Level FlightAware ADS-B
Sat 12:04:32 PM 24.4580 -96.3590 32° Northeast 483 556 35,000  Level FlightAware ADS-B
Sat 12:05:12 PM 24.5340 -96.3050 33° Northeast 482 555 35,000  Level FlightAware ADS-B
Sat 12:05:57 PM 24.6180 -96.2450 33° Northeast 483 556 35,000  Level FlightAware ADS-B
Sat 12:06:37 PM 24.6930 -96.1920 33° Northeast 482 555 35,000  Level FlightAware ADS-B
Sat 12:07:17 PM 24.7640 -96.1410 33° Northeast 482 555 35,000  Level FlightAware ADS-B
Sat 12:08:02 PM 24.8520 -96.0780 33° Northeast 482 555 35,000  Level FlightAware ADS-B
Sat 12:08:42 PM 24.9270 -96.0250 33° Northeast 481 554 35,000  Level FlightAware ADS-B
Sat 12:09:27 PM 25.0090 -95.9660 33° Northeast 482 555 35,000  Level FlightAware ADS-B
Sat 12:10:07 PM 25.0810 -95.9150 33° Northeast 482 555 35,000  Level FlightAware ADS-B
Sat 12:10:47 PM 25.1440 -95.8690 33° Northeast 482 555 35,000  Level FlightAware ADS-B
Sat 12:11:32 PM 25.2450 -95.7970 33° Northeast 479 551 35,000  Level FlightAware ADS-B
Sat 12:12:12 PM 25.3200 -95.7430 33° Northeast 478 550 35,000  Level FlightAware ADS-B
Sat 12:12:57 PM 25.4020 -95.6840 33° Northeast 475 547 35,000  Level FlightAware ADS-B
Sat 12:13:37 PM 25.4750 -95.6320 33° Northeast 474 545 35,000  Level FlightAware ADS-B
Sat 12:14:17 PM 25.5470 -95.5800 33° Northeast 472 543 35,000  Level FlightAware ADS-B
Sat 12:15:02 PM 25.6310 -95.5160 34° Northeast 476 548 35,000  Level FlightAware ADS-B
Sat 12:15:42 PM 25.6960 -95.4480 43° Northeast 484 557 35,000  Level FlightAware ADS-B
Sat 12:16:27 PM 25.7660 -95.3710 45° Northeast 482 555 35,000  Level FlightAware ADS-B
Sat 12:17:02 PM 25.8180 -95.3130 45° Northeast 480 552 35,000  Level FlightAware ADS-B
Sat 12:17:47 PM 25.8920 -95.2310 45° Northeast 480 552 35,000  Level FlightAware ADS-B
Sat 12:18:22 PM 25.9420 -95.1750 45° Northeast 481 554 35,000  Level FlightAware ADS-B
Sat 12:19:07 PM 26.0060 -95.1010 46° Northeast 481 554 35,000  Level FlightAware ADS-B
Sat 12:19:47 PM 26.0590 -95.0410 45° Northeast 481 554 35,000  Level FlightAware ADS-B
Sat 12:20:37 PM 26.1250 -94.9650 46° Northeast 481 554 35,000  Level FlightAware ADS-B
Sat 12:21:17 PM 26.1770 -94.9040 46° Northeast 481 554 35,000  Level FlightAware ADS-B
Sat 12:21:42 PM 26.2663 -94.8142 42° Northeast 483 556 35,000  Level FlightAware ADS-B
Sat 12:22:44 PM 26.3630 -94.7059 45° Northeast 484 557 35,000  Level FlightAware ADS-B
Sat 12:23:15 PM 26.4122 -94.6506 45° Northeast 484 557 35,000  Level FlightAware ADS-B
Sat 12:23:32 PM 26.4386 -94.6192 47° Northeast 486 559 35,000  Level FlightAware ADS-B
Sat 12:24:17 PM 26.5031 -94.5312 51° Northeast 491 565 35,000  Level FlightAware ADS-B
Sat 12:25:13 PM 26.5837 -94.4209 51° Northeast 491 565 35,000  Level FlightAware ADS-B
Sat 12:25:48 PM 26.6337 -94.3524 51° Northeast 491 565 35,000  Level FlightAware ADS-B
Sat 12:26:25 PM 26.6862 -94.2806 51° Northeast 492 566 35,000  Level FlightAware ADS-B
Sat 12:27:11 PM 26.7527 -94.1893 51° Northeast 492 566 35,000  Level FlightAware ADS-B
Sat 12:27:49 PM 26.8069 -94.1149 51° Northeast 493 567 35,000  Level FlightAware ADS-B
Sat 12:28:20 PM 26.8517 -94.0533 51° Northeast 493 567 35,000  Level FlightAware ADS-B
Sat 12:28:57 PM 26.9049 -93.9802 51° Northeast 493 567 35,000  Level FlightAware ADS-B
Sat 12:29:40 PM 26.9675 -93.8937 51° Northeast 494 568 35,000  Level FlightAware ADS-B
Sat 12:30:11 PM 27.0113 -93.8332 51° Northeast 493 567 35,000  Level FlightAware ADS-B
Sat 12:30:41 PM 27.0551 -93.7726 51° Northeast 491 565 35,000  Level FlightAware ADS-B
Sat 12:31:13 PM 27.1010 -93.7091 51° Northeast 491 565 35,000  Level FlightAware ADS-B
Sat 12:31:44 PM 27.1451 -93.6481 51° Northeast 490 564 35,000  Level FlightAware ADS-B
Sat 12:33:50 PM 27.3247 -93.3981 51° Northeast 491 565 35,000  Level FlightAware ADS-B
Sat 12:34:40 PM 27.3956 -93.2990 51° Northeast 494 568 35,000  Level FlightAware ADS-B
Sat 12:35:34 PM 27.4734 -93.1899 51° Northeast 497 572 35,000  Level FlightAware ADS-B
Sat 12:36:29 PM 27.5516 -93.0798 51° Northeast 500 575 35,000  Level FlightAware ADS-B
Sat 12:37:17 PM 27.6226 -92.9799 51° Northeast 500 575 35,000  Level FlightAware ADS-B
Sat 12:38:02 PM 27.6719 -92.9075 51° Northeast 501 577 35,000  Level Houston Center
Sat 12:39:04 PM 27.7586 -92.7856 51° Northeast 499 574 35,000  Level Houston Center
Sat 12:40:06 PM 27.8447 -92.6633 51° Northeast 500 575 35,000  Level Houston Center
Sat 12:41:08 PM 27.9483 -92.5178 51° Northeast 498 573 35,000  Level Houston Center
Sat 12:42:09 PM 28.0311 -92.3975 52° Northeast 490 564 35,000  Level Houston Center
Sat 12:43:11 PM 28.1161 -92.2767 51° Northeast 491 565 35,000  Level Houston Center
Sat 12:44:13 PM 28.2008 -92.1564 51° Northeast 490 564 35,000  Level Houston Center
Sat 12:45:15 PM 28.2844 -92.0350 52° Northeast 490 564 35,000  Level Houston Center
Sat 12:46:17 PM 28.3694 -91.9128 52° Northeast 494 568 35,000  Level Houston Center
Sat 12:47:19 PM 28.4714 -91.7664 52° Northeast 495 570 35,000  Level Houston Center
Sat 12:48:21 PM 28.5561 -91.6414 52° Northeast 487 560 35,000  Level Houston Center
Sat 12:49:23 PM 28.6406 -91.5175 52° Northeast 494 568 35,000  Level Houston Center
Sat 12:50:25 PM 28.7231 -91.3958 52° Northeast 488 562 35,000  Level Houston Center
Sat 12:51:27 PM 28.8058 -91.2756 52° Northeast 485 558 35,000  Level Houston Center
Sat 12:52:29 PM 28.8889 -91.1544 52° Northeast 485 558 35,000  Level Houston Center
Sat 12:53:31 PM 28.9714 -91.0336 52° Northeast 483 556 35,000  Level Houston Center
Sat 12:54:33 PM 29.0706 -90.8858 52° Northeast 488 562 35,000  Level Houston Center
Sat 01:00:17 PM 29.5350 -90.1950 52° Northeast 479 551 35,000  Level FlightAware ADS-B
Sat 01:01:02 PM 29.5990 -90.0980 53° Northeast 479 551 35,000  Level FlightAware ADS-B
Sat 01:01:42 PM 29.6530 -90.0160 53° Northeast 477 549 35,000  Level FlightAware ADS-B
Sat 01:02:27 PM 29.7120 -89.9270 53° Northeast 479 551 35,000  Level FlightAware ADS-B
Sat 01:03:07 PM 29.7640 -89.8470 53° Northeast 479 551 35,000  Level FlightAware ADS-B
Sat 01:03:52 PM 29.8260 -89.7530 53° Northeast 478 550 35,000  Level FlightAware ADS-B
Sat 01:04:32 PM 29.8800 -89.6720 52° Northeast 479 551 35,000  Level FlightAware ADS-B
Sat 01:05:07 PM 29.9300 -89.6010 51° Northeast 480 552 35,000  Level FlightAware ADS-B
Sat 01:06:07 PM 30.0100 -89.4900 50° Northeast 479 551 35,000  Level FlightAware ADS-B
Sat 01:07:02 PM 30.0870 -89.3850 50° Northeast 481 554 35,000  Level FlightAware ADS-B
Sat 01:07:47 PM 30.1450 -89.3050 50° Northeast 481 554 35,000  Level FlightAware ADS-B
Sat 01:08:27 PM 30.1940 -89.2380 50° Northeast 481 554 35,000  Level FlightAware ADS-B
Sat 01:09:07 PM 30.2420 -89.1710 50° Northeast 481 554 35,000  Level FlightAware ADS-B
Sat 01:09:47 PM 30.2910 -89.1030 50° Northeast 481 554 35,000  Level FlightAware ADS-B
Sat 01:10:37 PM 30.3520 -89.0200 50° Northeast 481 554 35,000  Level FlightAware ADS-B
Sat 01:11:17 PM 30.4000 -88.9520 51° Northeast 481 554 35,000  Level FlightAware ADS-B
Sat 01:11:57 PM 30.4490 -88.8850 50° Northeast 481 554 35,000  Level FlightAware ADS-B
Sat 01:12:37 PM 30.4980 -88.8180 50° Northeast 481 554 35,000  Level FlightAware ADS-B
Sat 01:13:17 PM 30.5460 -88.7510 50° Northeast 481 554 35,000  Level FlightAware ADS-B
Sat 01:14:07 PM 30.6070 -88.6660 50° Northeast 481 554 35,000  Level FlightAware ADS-B
Sat 01:14:47 PM 30.6560 -88.5990 50° Northeast 481 554 35,000  Level FlightAware ADS-B
Sat 01:15:27 PM 30.7040 -88.5320 50° Northeast 481 554 35,000  Level FlightAware ADS-B
Sat 01:16:07 PM 30.7530 -88.4640 50° Northeast 481 554 35,000  Level FlightAware ADS-B
Sat 01:16:47 PM 30.8020 -88.3970 50° Northeast 481 554 35,000  Level FlightAware ADS-B
Sat 01:17:16 PM 31.0181 -88.1981 50° Northeast 486 559 35,000  Level Houston Center
Sat 01:18:18 PM 31.1225 -88.0969 40° Northeast 492 566 35,000  Level Houston Center
Sat 01:19:20 PM 31.2253 -87.9931 41° Northeast 490 564 35,000  Level Houston Center
Sat 01:20:22 PM 31.3211 -87.8961 41° Northeast 484 557 35,000  Level Houston Center
Sat 01:20:49 PM 31.3858 -87.8333 40° Northeast 484 557 35,000  Level Atlanta Center
Sat 01:21:49 PM 31.4850 -87.7303 42° Northeast 478 550 35,000  Level Atlanta Center
Sat 01:22:49 PM 31.5861 -87.6247 42° Northeast 478 550 35,000  Level Atlanta Center
Sat 01:23:49 PM 31.6608 -87.4886 57° Northeast 489 563 35,000  Level Atlanta Center
Sat 01:24:49 PM 31.7336 -87.3500 58° Northeast 489 563 35,000  Level Atlanta Center
Sat 01:25:49 PM 31.7953 -87.2203 61° Northeast 489 563 35,000  Level Atlanta Center
Sat 01:26:49 PM 31.8697 -87.0833 57° Northeast 501 577 35,000  Level Atlanta Center
Sat 01:27:49 PM 31.9422 -86.9392 59° Northeast 501 577 35,000  Level Atlanta Center
Sat 01:28:49 PM 32.0164 -86.7944 59° Northeast 506 582 35,000  Level Atlanta Center
Sat 01:29:49 PM 32.1011 -86.6428 57° Northeast 506 582 35,000  Level Atlanta Center
Sat 01:30:49 PM 32.1731 -86.4975 60° Northeast 511 588 35,000  Level Atlanta Center
Sat 01:31:49 PM 32.2406 -86.3497 62° Northeast 503 579 35,000  Level Atlanta Center
Sat 01:32:49 PM 32.3097 -86.2186 58° Northeast 503 579 35,000  Level Atlanta Center
Sat 01:33:49 PM 32.3789 -86.0778 60° Northeast 503 579 35,000  Level Atlanta Center
Sat 01:34:49 PM 32.4500 -85.9342 60° Northeast 503 579 35,000  Level Atlanta Center
Sat 01:35:49 PM 32.5339 -85.7733 58° Northeast 509 586 35,000  Level Atlanta Center
Sat 01:36:49 PM 32.6025 -85.6292 61° Northeast 504 580 35,000  Level Atlanta Center
Sat 01:37:49 PM 32.6733 -85.4850 60° Northeast 504 580 35,000  Level Atlanta Center
Sat 01:38:49 PM 32.7436 -85.3453 59° Northeast 504 580 35,000  Level Atlanta Center
Sat 01:39:49 PM 32.8139 -85.2006 60° Northeast 504 580 35,000  Level Atlanta Center
Sat 01:40:49 PM 32.8800 -85.0653 60° Northeast 492 566 35,000 100 Level Atlanta Center
Sat 01:46:47 PM 33.2880 -84.2290 60° Northeast 502 578 35,700 332 Climbing FlightAware ADS-B
Sat 01:47:27 PM 33.3350 -84.1280 61° Northeast 493 567 37,200 1,624 Climbing FlightAware ADS-B
Sat 01:48:12 PM 33.3880 -84.0180 60° Northeast 493 567 38,000 1,159 Climbing FlightAware ADS-B
Sat 01:48:55 PM 33.4406 -83.9068 60° Northeast 484 557 38,900 750 Climbing FlightAware ADS-B
Sat 01:49:32 PM 33.4790 -83.8250 61° Northeast 491 565 39,000 73 Climbing FlightAware ADS-B
Sat 01:50:17 PM 33.5300 -83.7180 60° Northeast 486 559 39,000  Level FlightAware ADS-B
Sat 01:50:57 PM 33.5730 -83.6280 60° Northeast 488 562 39,000  Level FlightAware ADS-B
Sat 01:51:37 PM 33.6170 -83.5330 61° Northeast 489 563 39,000  Level FlightAware ADS-B
Sat 01:52:22 PM 33.6680 -83.4230 61° Northeast 486 559 39,000  Level FlightAware ADS-B
Sat 01:53:02 PM 33.7120 -83.3300 60° Northeast 487 560 39,000  Level FlightAware ADS-B
Sat 01:53:47 PM 33.7600 -83.2260 61° Northeast 489 563 39,000  Level FlightAware ADS-B
Sat 01:54:27 PM 33.8050 -83.1290 61° Northeast 491 565 39,000  Level FlightAware ADS-B
Sat 01:55:07 PM 33.8490 -83.0350 61° Northeast 491 565 39,000  Level FlightAware ADS-B
Sat 01:55:30 PM 33.8768 -82.9749 61° Northeast 488 562 39,000  Level FlightAware ADS-B
Sat 01:56:08 PM 33.9187 -82.8840 61° Northeast 489 563 39,000  Level FlightAware ADS-B
Sat 01:56:39 PM 33.9518 -82.8122 61° Northeast 490 564 39,000  Level FlightAware ADS-B
Sat 01:57:17 PM 33.9900 -82.7290 61° Northeast 490 564 39,000  Level FlightAware ADS-B
Sat 01:57:31 PM 34.0085 -82.6884 61° Northeast 490 564 39,000  Level FlightAware ADS-B
Sat 01:58:37 PM 34.0790 -82.5350 61° Northeast 491 565 39,000  Level FlightAware ADS-B
Sat 01:59:22 PM 34.1300 -82.4230 61° Northeast 493 567 39,000  Level FlightAware ADS-B
Sat 02:00:02 PM 34.1720 -82.3300 61° Northeast 494 568 39,000  Level FlightAware ADS-B
Sat 02:00:42 PM 34.2140 -82.2380 61° Northeast 497 572 39,000  Level FlightAware ADS-B
Sat 02:01:27 PM 34.2630 -82.1320 61° Northeast 497 572 39,000  Level FlightAware ADS-B
Sat 02:02:07 PM 34.3120 -82.0330 59° Northeast 497 572 39,000  Level FlightAware ADS-B
Sat 02:02:47 PM 34.3600 -81.9390 58° Northeast 494 568 39,000  Level FlightAware ADS-B
Sat 02:03:32 PM 34.4130 -81.8330 59° Northeast 489 563 39,000  Level FlightAware ADS-B
Sat 02:04:12 PM 34.4590 -81.7410 59° Northeast 488 562 39,000  Level FlightAware ADS-B
Sat 02:04:47 PM 34.0700 -82.5540 240° Southwest 488 562 39,000  Level FlightAware ADS-B
Sat 02:05:37 PM 34.5550 -81.5470 59° Northeast 489 563 39,000  Level FlightAware ADS-B
Sat 02:06:22 PM 34.6090 -81.4390 59° Northeast 491 565 39,000  Level FlightAware ADS-B
Sat 02:07:17 PM 34.6700 -81.3150 59° Northeast 489 563 39,000  Level FlightAware ADS-B
Sat 02:07:57 PM 34.7200 -81.2140 59° Northeast 490 564 39,000  Level FlightAware ADS-B
Sat 02:08:42 PM 34.7720 -81.1080 59° Northeast 486 559 39,000  Level FlightAware ADS-B
Sat 02:09:17 PM 34.8080 -81.0330 60° Northeast 486 559 39,000  Level FlightAware ADS-B
Sat 02:10:02 PM 34.8600 -80.9260 59° Northeast 485 558 39,000  Level FlightAware ADS-B
Sat 02:10:47 PM 34.9150 -80.8150 59° Northeast 480 552 39,000  Level FlightAware ADS-B
Sat 02:11:27 PM 34.9590 -80.7220 60° Northeast 475 547 39,000  Level FlightAware ADS-B
Sat 02:12:02 PM 34.9940 -80.6500 59° Northeast 471 542 39,000  Level FlightAware ADS-B
Sat 02:12:47 PM 35.0440 -80.5480 59° Northeast 469 540 39,000  Level FlightAware ADS-B
Sat 02:13:27 PM 35.0880 -80.4570 59° Northeast 467 537 39,000  Level FlightAware ADS-B
Sat 02:14:17 PM 35.1450 -80.3380 60° Northeast 466 536 39,000  Level FlightAware ADS-B
Sat 02:15:12 PM 35.2030 -80.2180 59° Northeast 465 535 39,000  Level FlightAware ADS-B
Sat 02:15:47 PM 35.2380 -80.1450 60° Northeast 466 536 39,000  Level FlightAware ADS-B
Sat 02:16:37 PM 35.2850 -80.0490 59° Northeast 466 536 39,000  Level FlightAware ADS-B
Sat 02:17:17 PM 35.3220 -79.9720 59° Northeast 466 536 39,000  Level FlightAware ADS-B
Sat 02:17:57 PM 35.3600 -79.8950 59° Northeast 466 536 39,000  Level FlightAware ADS-B
Sat 02:18:37 PM 35.3980 -79.8180 59° Northeast 466 536 39,000  Level FlightAware ADS-B
Sat 02:19:17 PM 35.4360 -79.7410 59° Northeast 466 536 39,000  Level FlightAware ADS-B
Sat 02:20:07 PM 35.4830 -79.6440 59° Northeast 466 536 39,000  Level FlightAware ADS-B
Sat 02:20:47 PM 35.5210 -79.5670 59° Northeast 466 536 39,000  Level FlightAware ADS-B
Sat 02:21:27 PM 35.5580 -79.4900 59° Northeast 466 536 39,000  Level FlightAware ADS-B
Sat 02:21:57 PM 35.1770 -80.2710 239° Southwest 39,000  Level FlightAware ADS-B
Sat 02:25:27 PM 35.6850 -78.7430 67° East 444 511 39,000  Level FlightAware ADS-B
Sat 02:26:07 PM 35.7130 -78.6450 71° East 445 512 39,000  Level FlightAware ADS-B
Sat 02:26:52 PM 35.7440 -78.5350 71° East 446 513 39,000  Level FlightAware ADS-B
Sat 02:27:32 PM 35.7720 -78.4370 71° East 449 517 39,000  Level FlightAware ADS-B
Sat 02:28:12 PM 35.7980 -78.3420 71° East 450 518 39,000  Level FlightAware ADS-B
Sat 02:28:57 PM 35.8290 -78.2330 71° East 452 520 39,000  Level FlightAware ADS-B
Sat 02:29:37 PM 35.8570 -78.1350 71° East 453 521 39,000  Level FlightAware ADS-B
Sat 02:30:22 PM 35.8880 -78.0220 71° East 455 524 39,000  Level FlightAware ADS-B
Sat 02:31:02 PM 35.9150 -77.9260 71° East 456 525 39,000  Level FlightAware ADS-B
Sat 02:31:47 PM 35.9450 -77.8170 71° East 458 527 39,000  Level FlightAware ADS-B
Sat 02:32:27 PM 35.9760 -77.7190 69° East 462 532 39,000  Level FlightAware ADS-B
Sat 02:33:07 PM 36.0230 -77.6290 57° Northeast 462 532 39,000  Level FlightAware ADS-B
Sat 02:33:52 PM 36.0820 -77.5340 52° Northeast 461 531 39,000  Level FlightAware ADS-B
Sat 02:34:47 PM 36.1460 -77.4320 52° Northeast 458 527 39,000  Level FlightAware ADS-B
Sat 02:35:27 PM 36.2010 -77.3420 53° Northeast 456 525 39,000  Level FlightAware ADS-B
Sat 02:36:07 PM 36.2510 -77.2610 53° Northeast 456 525 39,000  Level FlightAware ADS-B
Sat 02:37:22 PM 36.3480 -77.1010 53° Northeast 453 521 39,000  Level FlightAware ADS-B
Sat 02:37:57 PM 36.3920 -77.0290 53° Northeast 452 520 39,000  Level FlightAware ADS-B
Sat 02:38:42 PM 36.4430 -76.9490 52° Northeast 452 520 39,000  Level FlightAware ADS-B
Sat 02:39:27 PM 36.5020 -76.8490 54° Northeast 39,000  Level FlightAware ADS-B
Sat 02:40:07 PM 36.5510 -76.7690 53° Northeast 443 510 39,000  Level FlightAware ADS-B
Sat 02:41:02 PM 36.6180 -76.6570 53° Northeast 443 510 39,000  Level FlightAware ADS-B
Sat 02:41:42 PM 36.6600 -76.5870 53° Northeast 443 510 39,000  Level FlightAware ADS-B
Sat 02:42:22 PM 36.7020 -76.5180 53° Northeast 443 510 39,000  Level FlightAware ADS-B
Sat 02:43:12 PM 36.7550 -76.4310 53° Northeast 443 510 39,000  Level FlightAware ADS-B
Sat 02:43:52 PM 36.8950 -76.3970 11° North 39,000  Level FlightAware ADS-B
Sat 02:44:53 PM 37.0091 -76.3062 32° Northeast 437 503 39,000  Level FlightAware ADS-B
Sat 02:45:24 PM 37.0619 -76.2645 32° Northeast 437 503 39,000  Level FlightAware ADS-B
Sat 02:45:55 PM 37.1142 -76.2230 32° Northeast 437 503 39,000  Level FlightAware ADS-B
Sat 02:46:25 PM 37.1656 -76.1822 32° Northeast 437 503 39,000  Level FlightAware ADS-B
Sat 02:47:01 PM 37.2274 -76.1331 32° Northeast 438 504 39,000  Level FlightAware ADS-B
Sat 02:47:34 PM 37.2834 -76.0884 32° Northeast 439 505 39,000  Level FlightAware ADS-B
Sat 02:48:09 PM 37.3438 -76.0403 32° Northeast 440 506 39,000  Level FlightAware ADS-B
Sat 02:48:43 PM 37.4027 -75.9932 32° Northeast 440 506 39,000  Level FlightAware ADS-B
Sat 02:49:27 PM 37.4660 -75.9430 32° Northeast 440 506 39,000  Level FlightAware ADS-B
Sat 02:50:07 PM 37.5310 -75.8900 33° Northeast 439 505 39,000  Level FlightAware ADS-B
Sat 02:50:47 PM 37.5980 -75.8360 33° Northeast 436 502 39,000  Level FlightAware ADS-B
Sat 02:51:16 PM 37.6640 -75.7829 32° Northeast 435 501 39,000  Level FlightAware ADS-B
Sat 02:51:48 PM 37.7179 -75.7393 33° Northeast 435 501 39,000  Level FlightAware ADS-B
Sat 02:52:22 PM 37.7610 -75.7050 32° Northeast 434 499 39,000  Level FlightAware ADS-B
Sat 02:52:38 PM 37.8023 -75.6710 33° Northeast 435 501 39,000  Level FlightAware ADS-B
Sat 02:53:33 PM 37.8953 -75.5956 33° Northeast 434 499 39,000  Level FlightAware ADS-B
Sat 02:54:19 PM 37.9713 -75.5338 33° Northeast 429 494 39,000  Level FlightAware ADS-B
Sat 02:54:51 PM 38.0250 -75.4899 33° Northeast 428 493 39,000  Level FlightAware ADS-B
Sat 02:55:19 PM 38.0717 -75.4545 31° Northeast 426 490 39,000  Level FlightAware ADS-B
Sat 02:55:52 PM 38.1304 -75.4175 26° Northeast 424 488 39,000  Level FlightAware ADS-B
Sat 02:56:32 PM 38.1950 -75.3770 26° Northeast 422 486 39,000  Level FlightAware ADS-B
Sat 02:56:49 PM 38.2307 -75.3541 27° Northeast 422 486 39,000  Level FlightAware ADS-B
Sat 02:57:21 PM 38.2859 -75.3192 26° Northeast 421 484 39,000  Level FlightAware ADS-B
Sat 02:57:53 PM 38.3421 -75.2836 26° Northeast 421 484 39,000 -677 Level FlightAware ADS-B
Sat 02:58:23 PM 38.3942 -75.2503 27° Northeast 420 483 38,300 -1,839 Descending FlightAware ADS-B
Sat 02:58:55 PM 38.4498 -75.2151 26° Northeast 423 487 37,100 -1,164 Descending FlightAware ADS-B
Sat 02:59:30 PM 38.5109 -75.1762 26° Northeast 423 487 37,000 -87 Descending FlightAware ADS-B
Sat 03:00:04 PM 38.5704 -75.1384 26° Northeast 421 484 37,000  Level FlightAware ADS-B
Sat 03:00:37 PM 38.6285 -75.1014 26° Northeast 422 486 37,000  Level FlightAware ADS-B
Sat 03:01:29 PM 38.7181 -75.0438 27° Northeast 422 486 37,000  Level FlightAware ADS-B
Sat 03:02:00 PM 38.7731 -75.0084 27° Northeast 423 487 37,000 -1,065 Level FlightAware ADS-B
Sat 03:02:31 PM 38.8271 -74.9736 27° Northeast 426 490 35,900 -2,710 Descending FlightAware ADS-B
Sat 03:03:02 PM 38.8822 -74.9381 27° Northeast 435 501 34,200 -3,049 Descending FlightAware ADS-B
Sat 03:03:32 PM 38.9368 -74.9028 27° Northeast 435 501 32,800 -2,656 Descending FlightAware ADS-B
Sat 03:04:03 PM 38.9906 -74.8679 27° Northeast 432 497 31,500 -1,846 Descending FlightAware ADS-B
Sat 03:04:37 PM 39.0512 -74.8290 26° Northeast 418 481 30,800 -1,560 Descending FlightAware ADS-B
Sat 03:04:53 PM 39.0787 -74.8104 28° Northeast 412 474 30,200 -2,160 Descending FlightAware ADS-B
Sat 03:05:02 PM 39.0930 -74.7991 32° Northeast 411 473 29,900 -2,118 Descending FlightAware ADS-B
Sat 03:05:10 PM 39.1062 -74.7874 35° Northeast 410 472 29,600 -2,049 Descending FlightAware ADS-B
Sat 03:05:43 PM 39.1538 -74.7375 39° Northeast 407 468 28,500 -2,000 Descending FlightAware ADS-B
Sat 03:06:13 PM 39.1971 -74.6910 40° Northeast 399 459 27,500 -2,100 Descending FlightAware ADS-B
Sat 03:06:43 PM 39.2390 -74.6456 40° Northeast 392 451 26,400 -2,066 Descending FlightAware ADS-B
Sat 03:07:14 PM 39.2812 -74.5999 40° Northeast 383 441 25,400 -1,935 Descending FlightAware ADS-B
Sat 03:07:45 PM 39.3220 -74.5554 40° Northeast 376 433 24,400 -1,869 Descending FlightAware ADS-B
Sat 03:08:15 PM 39.3623 -74.5115 40° Northeast 367 422 23,500 -1,869 Descending FlightAware ADS-B
Sat 03:08:46 PM 39.4012 -74.4691 40° Northeast 359 413 22,500 -1,909 Descending FlightAware ADS-B
Sat 03:09:21 PM 39.4456 -74.4206 40° Northeast 352 405 21,400 -1,853 Descending FlightAware ADS-B
Sat 03:09:54 PM 39.4855 -74.3772 40° Northeast 339 390 20,400 -1,781 Descending FlightAware ADS-B
Sat 03:10:25 PM 39.5216 -74.3378 40° Northeast 332 382 19,500 -1,770 Descending FlightAware ADS-B
Sat 03:10:55 PM 39.5573 -74.2987 40° Northeast 326 375 18,600 -1,500 Descending FlightAware ADS-B
Sat 03:11:25 PM 39.5915 -74.2609 40° Northeast 325 374 18,000 -500 Descending FlightAware ADS-B
Sat 03:12:07 PM 39.6379 -74.2100 40° Northeast 311 358 18,000  Level FlightAware ADS-B
Sat 03:12:38 PM 39.6721 -74.1724 40° Northeast 307 353 18,000 -381 Level FlightAware ADS-B
Sat 03:13:10 PM 39.7051 -74.1362 40° Northeast 288 331 17,600 -1,125 Descending FlightAware ADS-B
Sat 03:13:42 PM 39.7372 -74.1007 40° Northeast 284 327 16,800 -1,594 Descending FlightAware ADS-B
Sat 03:14:14 PM 39.7693 -74.0653 40° Northeast 286 329 15,900 -1,545 Descending FlightAware ADS-B
Sat 03:14:48 PM 39.8030 -74.0281 40° Northeast 282 325 15,100 -1,406 Descending FlightAware ADS-B
Sat 03:15:18 PM 39.8333 -73.9949 40° Northeast 281 323 14,400 -1,429 Descending FlightAware ADS-B
Sat 03:15:30 PM 39.8451 -73.9841 35° Northeast 280 322 14,100 -1,565 Descending FlightAware ADS-B
Sat 03:16:04 PM 39.8844 -73.9556 29° Northeast 280 322 13,200 -1,477 Descending FlightAware ADS-B
Sat 03:16:35 PM 39.9185 -73.9312 29° Northeast 276 318 12,500 -1,147 Descending FlightAware ADS-B
Sat 03:17:12 PM 39.9590 -73.9023 29° Northeast 263 303 11,900 -1,268 Descending FlightAware ADS-B
Sat 03:17:46 PM 39.9946 -73.8768 29° Northeast 260 299 11,000 -1,368 Descending FlightAware ADS-B
Sat 03:18:09 PM 40.0191 -73.8597 28° Northeast 253 291 10,600 -581 Descending FlightAware ADS-B
Sat 03:18:17 PM 40.0282 -73.8560 17° North 247 284 10,700 375 Climbing FlightAware ADS-B
Sat 03:18:25 PM 40.0365 -73.8555 North 247 284 10,700 -333 Level FlightAware ADS-B
Sat 03:18:35 PM 40.0479 -73.8594 345° North 247 284 10,600 -400 Descending FlightAware ADS-B
Sat 03:18:40 PM 40.0532 -73.8630 333° Northwest 249 287 10,600 545 Level FlightAware ADS-B
Sat 03:18:46 PM 40.0585 -73.8683 323° Northwest 252 290 10,700 154 Climbing FlightAware ADS-B
Sat 03:19:19 PM 40.0692 -73.9154 287° West 262 302 10,700  Level FlightAware ADS-B
Sat 03:19:32 PM 40.0616 -73.9344 242° Southwest 269 310 10,700 -182 Level FlightAware ADS-B
Sat 03:19:52 PM 40.0424 -73.9511 214° Southwest 262 302 10,600  Descending FlightAware ADS-B
Sat 03:20:22 PM 40.0096 -73.9726 207° Southwest 262 302 10,700 98 Climbing FlightAware ADS-B
Sat 03:20:53 PM 39.9760 -73.9952 207° Southwest 261 300 10,700  Level FlightAware ADS-B
Sat 03:21:25 PM 39.9415 -74.0183 207° Southwest 263 303 10,700  Level FlightAware ADS-B
Sat 03:21:56 PM 39.9076 -74.0406 207° Southwest 263 303 10,700  Level FlightAware ADS-B
Sat 03:22:17 PM 39.8843 -74.0498 197° South 256 295 10,700  Level FlightAware ADS-B
Sat 03:22:52 PM 39.8530 -74.0260 150° Southeast 234 269 10,700  Level FlightAware ADS-B
Sat 03:23:07 PM 39.8490 -74.0080 106° East 229 264 10,700  Level FlightAware ADS-B
Sat 03:23:24 PM 39.8524 -73.9816 80° East 229 264 10,700 -109 Level FlightAware ADS-B
Sat 03:24:02 PM 39.8837 -73.9500 38° Northeast 232 267 10,600  Descending FlightAware ADS-B
Sat 03:24:33 PM 39.9137 -73.9300 27° Northeast 232 267 10,700 94 Climbing FlightAware ADS-B
Sat 03:25:06 PM 39.9451 -73.9090 27° Northeast 232 267 10,700  Level FlightAware ADS-B
Sat 03:25:37 PM 39.9741 -73.8898 27° Northeast 233 268 10,700  Level FlightAware ADS-B
Sat 03:26:08 PM 40.0037 -73.8701 27° Northeast 232 267 10,700  Level FlightAware ADS-B
Sat 03:26:29 PM 40.0242 -73.8575 25° Northeast 233 268 10,700  Level FlightAware ADS-B
Sat 03:26:35 PM 40.0307 -73.8558 11° North 235 270 10,700  Level FlightAware ADS-B
Sat 03:26:42 PM 40.0385 -73.8558 360° North 238 274 10,700  Level FlightAware ADS-B
Sat 03:26:51 PM 40.0479 -73.8586 347° North 242 278 10,700  Level FlightAware ADS-B
Sat 03:26:55 PM 40.0520 -73.8611 335° Northwest 245 282 10,700  Level FlightAware ADS-B
Sat 03:27:32 PM 40.0720 -73.9060 300° West 265 305 10,700  Level FlightAware ADS-B
Sat 03:27:44 PM 40.0683 -73.9269 257° West 269 310 10,700  Level FlightAware ADS-B
Sat 03:27:56 PM 40.0594 -73.9418 232° Southwest 267 307 10,700  Level FlightAware ADS-B
Sat 03:28:03 PM 40.0523 -73.9483 215° Southwest 264 304 10,700 -286 Level FlightAware ADS-B
Sat 03:28:17 PM 40.0368 -73.9581 206° Southwest 259 298 10,600  Descending FlightAware ADS-B
Sat 03:28:48 PM 40.0037 -73.9802 207° Southwest 262 302 10,700 97 Climbing FlightAware ADS-B
Sat 03:29:19 PM 39.9703 -74.0027 207° Southwest 261 300 10,700  Level FlightAware ADS-B
Sat 03:29:50 PM 39.9371 -74.0249 207° Southwest 261 300 10,700  Level FlightAware ADS-B
Sat 03:30:20 PM 39.9044 -74.0463 207° Southwest 261 300 10,700  Level FlightAware ADS-B
Sat 03:30:32 PM 39.8914 -74.0524 200° South 259 298 10,700  Level FlightAware ADS-B
Sat 03:30:40 PM 39.8814 -74.0526 181° South 254 292 10,700  Level FlightAware ADS-B
Sat 03:30:51 PM 39.8694 -74.0480 164° South 247 284 10,700  Level FlightAware ADS-B
Sat 03:31:06 PM 39.8564 -74.0344 141° Southeast 239 275 10,700  Level FlightAware ADS-B
Sat 03:31:14 PM 39.8519 -74.0252 123° Southeast 234 269 10,700  Level FlightAware ADS-B
Sat 03:31:19 PM 39.8499 -74.0186 112° Southeast 232 267 10,700  Level FlightAware ADS-B
Sat 03:32:02 PM 39.8610 -73.9670 74° East 229 264 10,700  Level FlightAware ADS-B
Sat 03:32:17 PM 39.8730 -73.9570 33° Northeast 231 266 10,700  Level FlightAware ADS-B
Sat 03:32:24 PM 39.8818 -73.9512 27° Northeast 230 265 10,700  Level FlightAware ADS-B
Sat 03:32:28 PM 39.8857 -73.9486 27° Northeast 231 266 10,700  Level FlightAware ADS-B
Sat 03:33:03 PM 39.9192 -73.9263 27° Northeast 231 266 10,700  Level FlightAware ADS-B
Sat 03:33:34 PM 39.9490 -73.9066 27° Northeast 231 266 10,700  Level FlightAware ADS-B
Sat 03:34:05 PM 39.9788 -73.8869 27° Northeast 233 268 10,700  Level FlightAware ADS-B
Sat 03:34:37 PM 40.0087 -73.8670 27° Northeast 233 268 10,700  Level FlightAware ADS-B
Sat 03:34:48 PM 40.0196 -73.8585 31° Northeast 227 261 10,700  Level FlightAware ADS-B
Sat 03:35:21 PM 40.0442 -73.8263 45° Northeast 231 266 10,700 -469 Level FlightAware ADS-B
Sat 03:35:52 PM 40.0675 -73.7956 45° Northeast 231 266 10,200 -1,021 Descending FlightAware ADS-B
Sat 03:36:08 PM 40.0793 -73.7798 46° Northeast 229 264 9,900 -1,080 Descending FlightAware ADS-B
Sat 03:36:42 PM 40.1030 -73.7480 46° Northeast 226 260 9,300 -1,019 Descending FlightAware ADS-B
Sat 03:37:01 PM 40.1178 -73.7282 46° Northeast 225 259 9,000 -1,091 Descending FlightAware ADS-B
Sat 03:37:15 PM 40.1263 -73.7133 53° Northeast 223 257 8,700 -1,043 Descending FlightAware ADS-B
Sat 03:37:47 PM 40.1444 -73.6776 56° Northeast 219 252 8,200 -1,040 Descending FlightAware ADS-B
Sat 03:38:30 PM 40.1690 -73.6314 55° Northeast 218 251 7,400 -1,000 Descending FlightAware ADS-B
Sat 03:38:41 PM 40.1789 -73.6247 27° Northeast 217 250 7,300 -1,000 Descending FlightAware ADS-B
Sat 03:38:54 PM 40.1917 -73.6239 North 220 253 7,000 -1,143 Descending FlightAware ADS-B
Sat 03:39:02 PM 40.2001 -73.6278 340° North 226 260 6,900 -1,200 Descending FlightAware ADS-B
Sat 03:39:14 PM 40.2098 -73.6381 321° Northwest 234 269 6,600 -1,200 Descending FlightAware ADS-B
Sat 03:39:32 PM 40.2174 -73.6622 292° West 248 285 6,300 -1,071 Descending FlightAware ADS-B
Sat 03:39:42 PM 40.2166 -73.6776 266° West 252 290 6,100 -1,286 Descending FlightAware ADS-B
Sat 03:39:46 PM 40.2154 -73.6829 253° West 254 292 6,000 -1,286 Descending FlightAware ADS-B
Sat 03:39:56 PM 40.2100 -73.6968 243° Southwest 256 295 5,800 -1,313 Descending FlightAware ADS-B
Sat 03:40:18 PM 40.1960 -73.7254 237° Southwest 257 296 5,300 -1,116 Descending FlightAware ADS-B
Sat 03:40:39 PM 40.1831 -73.7521 238° Southwest 254 292 5,000 -933 Descending FlightAware ADS-B
Sat 03:41:03 PM 40.1773 -73.7869 258° West 244 281 4,600 -1,071 Descending FlightAware ADS-B
Sat 03:41:07 PM 40.1785 -73.7923 286° West 240 276 4,500 -1,500 Descending FlightAware ADS-B
Sat 03:41:11 PM 40.1799 -73.7979 288° West 239 275 4,400 -857 Descending FlightAware ADS-B
Sat 03:41:35 PM 40.1892 -73.8306 290° West 234 269 4,100 -818 Descending FlightAware ADS-B
Sat 03:41:55 PM 40.1962 -73.8557 290° West 229 264 3,800 -833 Descending FlightAware ADS-B
Sat 03:42:11 PM 40.2020 -73.8766 290° West 230 265 3,600 -267 Descending FlightAware ADS-B
Sat 03:42:40 PM 40.2203 -73.9063 309° West 216 249 3,600 136 Level FlightAware ADS-B
Sat 03:42:55 PM 40.2320 -73.9191 320° Northwest 215 247 3,700 136 Climbing FlightAware ADS-B
Sat 03:43:24 PM 40.2542 -73.9430 321° Northwest 215 247 3,700 -400 Level FlightAware ADS-B
Sat 03:43:40 PM 40.2667 -73.9562 321° Northwest 216 249 3,400 -1,235 Descending FlightAware ADS-B
Sat 03:43:58 PM 40.2802 -73.9705 321° Northwest 218 251 3,000 -1,161 Descending FlightAware ADS-B
Sat 03:44:11 PM 40.2910 -73.9816 322° Northwest 218 251 2,800 -900 Descending FlightAware ADS-B
Sat 03:44:18 PM 40.2972 -73.9859 332° Northwest 214 246 2,700 -429 Descending FlightAware ADS-B
Sat 03:44:25 PM 40.3039 -73.9888 342° North 212 244 2,700  Level FlightAware ADS-B
Sat 03:44:42 PM 40.3196 -73.9949 343° North 202 232 2,700 -162 Level FlightAware ADS-B
Sat 03:45:02 PM 40.3360 -74.0014 343° North 189 217 2,600  Descending FlightAware ADS-B
Sat 03:45:18 PM 40.3493 -74.0067 343° North 184 212 2,700  Climbing FlightAware ADS-B
Sat 03:45:35 PM 40.3635 -74.0122 344° North 183 211 2,600  Descending FlightAware ADS-B
Sat 03:45:42 PM 40.3691 -74.0139 347° North 181 208 2,700 429 Climbing FlightAware ADS-B
Sat 03:45:49 PM 40.3749 -74.0148 353° North 181 208 2,700 -261 Level FlightAware ADS-B
Sat 03:46:05 PM 40.3884 -74.0166 354° North 181 208 2,600 -171 Descending FlightAware ADS-B
Sat 03:46:24 PM 40.4038 -74.0186 354° North 175 201 2,600 122 Level FlightAware ADS-B
Sat 03:46:54 PM 40.4275 -74.0221 354° North 176 203 2,700 111 Climbing FlightAware ADS-B
Sat 03:47:18 PM 40.4474 -74.0246 355° North 176 203 2,700 -130 Level FlightAware ADS-B
Sat 03:47:40 PM 40.4632 -74.0170 20° North 168 193 2,600  Descending FlightAware ADS-B
Sat 03:48:22 PM 40.4890 -73.9960 32° Northeast 168 193 2,700 83 Climbing FlightAware ADS-B
Sat 03:48:52 PM 40.5090 -73.9790 33° Northeast 168 193 2,700 -109 Level FlightAware ADS-B
Sat 03:49:17 PM 40.5260 -73.9650 32° Northeast 168 193 2,600 -436 Descending FlightAware ADS-B
Sat 03:49:47 PM 40.5460 -73.9490 31° Northeast 174 200 2,300 -655 Descending FlightAware ADS-B
Sat 03:50:12 PM 40.5640 -73.9340 32° Northeast 177 204 2,000 -764 Descending FlightAware ADS-B
Sat 03:50:42 PM 40.5850 -73.9170 32° Northeast 178 205 1,600 -764 Descending FlightAware ADS-B
Sat 03:51:07 PM 40.6020 -73.9030 32° Northeast 178 205 1,300 -655 Descending FlightAware ADS-B
Sat 03:51:37 PM 40.6240 -73.8860 30° Northeast 169 194 1,000 -800 Descending FlightAware ADS-B
Sat 03:52:07 PM 40.6430 -73.8710 31° Northeast 159 183 500 -667 Descending FlightAware ADS-B
Sat 03:52:22 PM 40.6520 -73.8640 31° Northeast 154 177 500  Level FlightAware ADS-B
Sat 03:52:47 PM 40.6640 -73.8490 43° Northeast 139 160 500 -109 Level FlightAware ADS-B
Sat 03:53:17 PM 40.6670 -73.8230 81° East 140 161 400 -200 Descending FlightAware ADS-B
Sat 03:53:57 PM 40.6580 -73.7920 111° Southeast 145 167 -600 Descending FlightAware ADS-B
Sat 03:54:02 PM 40.6580 -73.7900 90° East 146 168  Level FlightAware ADS-B

Login

Don't have an account? Register now (free) for customized features, flight alerts, and more!